Kobuk Valley National Park, AK

3:51 AM AKDT op 01 augustus 2014 (GMT -0800)
Baker Memorial (PAIK) Hoogte 151 ft | 66.98 °N, 160.44 °W | Change Station

Current weather conditions updated 50 minutes ago

Overcast
Geheel bewolkt
56 °F
Voelt als 56 °F
N
0
Wind Variabel Wind van noord

Er wordt verwacht dat het vandaag warmer is dan gisteren.

Vandaag
Hoog -- | Laag -- °F
--% Kans op neerslag
Gisteren
Hoog -- | Laag -- °F
Precip. -- inches
5:05 AM 0:25 AM
Wassende halvemaan, 26% visible
Druk 30.16 inches
Zicht 10.0 mijlen
Wolken Geheel bewolkt 1900 ft
Dauwpunt 55 °F
Vochtigheid 97%
Neerslag 0.00 inches
Dikte sneeuw Niet beschikbaar.
UV 0 van de 12
Pollen Niet beschikbaar.
Luchtkwaliteit Niet beschikbaar.
Flu Activity Niet beschikbaar.
METAR PAIK 011101Z AUTO 00000KT 10SM OVC019 13/13 A3004 RMK AO2 RAB1012E1022 SLP211 P0000 T01330128

More Conditions Fewer Conditions

Druk 30.16 inches
Zicht 10.0 mijlen
Wolken Geheel bewolkt 1900 ft
Dauwpunt 55 °F
Vochtigheid 97%
Neerslag 0.00 inches
Dikte sneeuw Niet beschikbaar.
UV 0 van de 12
Pollen Niet beschikbaar.
Luchtkwaliteit Niet beschikbaar.
Flu Activity Niet beschikbaar.
METAR PAIK 011101Z AUTO 00000KT 10SM OVC019 13/13 A3004 RMK AO2 RAB1012E1022 SLP211 P0000 T01330128

More Conditions Fewer Conditions

10-Day Weather Forecast

Almanac

Astronomie

Aug. 01, 2014 Opkomst Ondergang
Werkelijke tijd 5:05 AM AKDT 12:25 AM AKDT
Burgerlijke schemering 3:20 AM AKDT 2:15 AM AKDT
Nautische schemering Sun does not rise Sun does not rise
Astronomische schemering Sun does not rise Sun does not rise
Maan 1:58 PM AKDT 11:51 PM AKDT
Golflengte van het zichtbare licht 22h 55m
Daglengte
19h 20m
Tomorrow will be 9m 29s shorter.
Wassende halvemaan, 26% of the Moon is Illuminated
Vandaag
Wassende halvemaan
aug 3
Eerste kwartier
aug 10
Volle maan
aug 17
Laatste kwartier
aug 25
Nieuw

Extremen vandaag

State Highs State Lows

Community

WunderPhotos

Upload Photos

1,739,538 foto’s ge-upload!

Nearby

Luchtkwaliteit

Not available.

Dikte sneeuw

Station Depth Geometrische hoogte
Rocky Point 1 in 500 ft
Gobblers Knob 0 in 2030 ft
Coldfoot 0 in 1040 ft
Atigun Pass 0 in 4800 ft
Fort Yukon 2 in 430 ft

Aardbevingen

Stad Distance Mag. Time & Date
No recent earthquake activity has been reported nearby.
Minimum magnitude displayed is 2.5.

Watertemperatuur langs de kust

Plaats Temperatuur
Geen meldingen van stations

Nabije weerstations

Locatie station Temp. Dauwpunt Vochtigheid Wind Precip. Hoogte Geactualiseerd Type
RAWS SALMON RIVER AK, Kiana, AK 52 °F 52 °F 99% west  op  1 mijl/u 0.00 inches / hr 1201 ft 2:38 AM AKDT MADIS

Show More Stations Show Fewer Stations